createdAt,value
2023-03-25T00:01:08.942Z,99.90
2023-03-25T00:03:37.396Z,99.90
2023-03-25T00:06:05.650Z,99.90
2023-03-25T00:08:32.337Z,99.90
2023-03-25T00:10:59.745Z,99.90
2023-03-25T00:13:26.615Z,99.90
2023-03-25T00:15:57.981Z,99.90
2023-03-25T00:18:33.523Z,99.90
2023-03-25T00:21:01.183Z,99.90
2023-03-25T00:23:28.749Z,99.90
2023-03-25T00:25:59.983Z,99.90
2023-03-25T00:28:28.357Z,99.90
2023-03-25T00:30:54.911Z,99.90
2023-03-25T00:33:22.550Z,99.90
2023-03-25T00:35:52.561Z,99.90
2023-03-25T00:38:19.325Z,99.90
2023-03-25T00:40:46.808Z,99.90
2023-03-25T00:43:14.318Z,99.90
2023-03-25T00:45:41.059Z,99.90
2023-03-25T00:48:07.618Z,99.90
2023-03-25T00:50:34.401Z,99.90
2023-03-25T00:53:01.218Z,99.90
2023-03-25T00:55:27.688Z,99.90
2023-03-25T00:57:54.164Z,99.90
2023-03-25T01:00:20.778Z,99.90
2023-03-25T01:02:48.778Z,99.90
2023-03-25T01:05:15.281Z,99.90
2023-03-25T01:07:42.116Z,99.90
2023-03-25T01:10:08.862Z,99.90
2023-03-25T01:12:35.403Z,99.90
2023-03-25T01:15:02.020Z,99.90
2023-03-25T01:17:28.562Z,99.90
2023-03-25T01:19:55.138Z,99.90
2023-03-25T01:22:21.578Z,99.90
2023-03-25T01:24:48.126Z,99.90
2023-03-25T01:27:14.602Z,99.90
2023-03-25T01:29:41.112Z,99.90
2023-03-25T01:32:07.629Z,99.90
2023-03-25T01:34:38.300Z,99.90
2023-03-25T01:37:04.793Z,99.90
2023-03-25T01:39:31.320Z,99.90
2023-03-25T01:41:57.897Z,99.90
2023-03-25T01:44:24.444Z,99.90
2023-03-25T01:46:53.890Z,99.90
2023-03-25T01:49:44.083Z,99.90
2023-03-25T01:52:14.827Z,99.90
2023-03-25T01:54:41.729Z,99.90
2023-03-25T01:57:09.835Z,99.90
2023-03-25T01:59:37.092Z,99.90
2023-03-25T02:02:04.273Z,99.90
2023-03-25T02:04:38.838Z,99.90
2023-03-25T02:07:08.376Z,99.90
2023-03-25T02:09:34.849Z,99.90
2023-03-25T02:12:01.452Z,99.90
2023-03-25T02:14:30.288Z,99.90
2023-03-25T02:17:03.954Z,99.90
2023-03-25T02:19:32.910Z,99.90
2023-03-25T02:22:05.808Z,99.90
2023-03-25T02:24:53.932Z,99.90
2023-03-25T02:27:27.234Z,99.90
2023-03-25T02:30:10.230Z,99.90
2023-03-25T02:32:56.729Z,99.90
2023-03-25T02:35:23.262Z,99.90
2023-03-25T02:38:06.275Z,99.90
2023-03-25T02:40:44.603Z,99.90
2023-03-25T02:43:13.160Z,99.90
2023-03-25T02:45:43.517Z,99.90
2023-03-25T02:48:17.866Z,99.90
2023-03-25T02:50:48.284Z,99.90
2023-03-25T02:53:17.077Z,99.90
2023-03-25T02:55:44.562Z,99.90
2023-03-25T02:58:12.955Z,99.90
2023-03-25T03:00:39.812Z,99.90
2023-03-25T03:03:08.143Z,99.90
2023-03-25T03:05:37.121Z,99.90
2023-03-25T03:08:22.613Z,99.90
2023-03-25T03:10:53.404Z,99.90
2023-03-25T03:13:41.997Z,99.90
2023-03-25T03:16:14.149Z,99.90
2023-03-25T03:19:02.110Z,99.90
2023-03-25T03:21:34.793Z,99.90
2023-03-25T03:24:07.217Z,99.90
2023-03-25T03:26:43.242Z,99.90
2023-03-25T03:29:16.546Z,99.90
2023-03-25T03:31:50.729Z,99.90
2023-03-25T03:34:52.473Z,99.90
2023-03-25T03:37:22.924Z,99.90
2023-03-25T03:39:50.796Z,99.90
2023-03-25T03:42:20.786Z,99.90
2023-03-25T03:44:50.716Z,99.90
2023-03-25T03:47:30.079Z,99.90
2023-03-25T03:49:58.401Z,99.90
2023-03-25T03:52:27.310Z,99.90
2023-03-25T03:55:01.595Z,99.90
2023-03-25T03:57:39.738Z,99.90
2023-03-25T04:00:09.954Z,99.90
2023-03-25T04:02:41.454Z,99.90
2023-03-25T04:05:11.397Z,99.90
2023-03-25T04:07:45.705Z,99.90
2023-03-25T04:10:18.537Z,99.90
2023-03-25T04:12:47.566Z,99.90
2023-03-25T04:15:14.400Z,99.90
2023-03-25T04:17:41.104Z,99.90
2023-03-25T04:20:11.479Z,99.90
2023-03-25T04:22:38.402Z,99.90
2023-03-25T04:25:06.096Z,99.90
2023-03-25T04:27:32.790Z,99.90
2023-03-25T04:30:01.530Z,99.90
2023-03-25T04:32:28.181Z,99.90
2023-03-25T04:34:57.700Z,99.90
2023-03-25T04:37:25.548Z,99.90
2023-03-25T04:39:53.833Z,99.90
2023-03-25T04:42:20.394Z,99.90
2023-03-25T04:44:46.904Z,99.90
2023-03-25T04:47:14.779Z,99.90
2023-03-25T04:49:45.014Z,99.90
2023-03-25T04:52:11.579Z,99.90
2023-03-25T04:54:40.807Z,99.90
2023-03-25T04:57:10.167Z,99.90
2023-03-25T04:59:37.078Z,99.90
2023-03-25T05:02:05.841Z,99.90
2023-03-25T05:04:32.825Z,99.90
2023-03-25T05:06:59.402Z,99.90
2023-03-25T05:09:25.893Z,99.90
2023-03-25T05:11:52.991Z,99.90
2023-03-25T05:14:20.859Z,99.90
2023-03-25T05:16:47.600Z,99.90
2023-03-25T05:19:14.620Z,99.90
2023-03-25T05:21:42.169Z,99.90
2023-03-25T05:24:10.227Z,99.90
2023-03-25T05:26:37.722Z,99.90
2023-03-25T05:29:05.042Z,99.90
2023-03-25T05:31:31.562Z,99.90
2023-03-25T05:33:58.113Z,99.90
2023-03-25T05:36:27.731Z,99.90
2023-03-25T05:38:54.485Z,99.90
2023-03-25T05:41:22.811Z,99.90
2023-03-25T05:43:50.801Z,99.90
2023-03-25T05:46:18.492Z,99.90
2023-03-25T05:48:45.405Z,99.90
2023-03-25T05:51:13.625Z,99.90
2023-03-25T05:53:40.183Z,99.90
2023-03-25T05:56:06.847Z,99.90
2023-03-25T05:58:33.379Z,99.90
2023-03-25T06:01:02.920Z,99.90
2023-03-25T06:03:29.576Z,99.90
2023-03-25T06:05:56.525Z,99.90
2023-03-25T06:08:26.114Z,99.90
2023-03-25T06:10:58.237Z,99.90
2023-03-25T06:13:25.020Z,99.90
2023-03-25T06:15:56.094Z,99.90
2023-03-25T06:18:25.731Z,99.90
2023-03-25T06:20:54.013Z,99.90
2023-03-25T06:23:22.234Z,99.90
2023-03-25T06:25:52.288Z,99.90
2023-03-25T06:28:19.343Z,99.90
2023-03-25T06:30:46.464Z,99.90
2023-03-25T06:33:13.802Z,99.90
2023-03-25T06:35:42.431Z,99.90
2023-03-25T06:38:13.776Z,99.90
2023-03-25T06:40:40.342Z,99.90
2023-03-25T06:43:07.021Z,99.90
2023-03-25T06:45:33.705Z,99.90
2023-03-25T06:48:00.851Z,99.90
2023-03-25T06:50:27.473Z,99.90
2023-03-25T06:52:55.071Z,99.90
2023-03-25T06:55:21.523Z,99.90
2023-03-25T06:57:48.056Z,99.90
2023-03-25T07:00:14.796Z,99.90
2023-03-25T07:02:41.478Z,99.90
2023-03-25T07:05:08.352Z,99.90
2023-03-25T07:07:35.050Z,99.90
2023-03-25T07:10:01.567Z,99.90
2023-03-25T07:12:28.070Z,99.90
2023-03-25T07:14:55.764Z,99.90
2023-03-25T07:17:23.041Z,99.90
2023-03-25T07:19:49.867Z,99.90
2023-03-25T07:22:16.567Z,99.90
2023-03-25T07:24:43.309Z,99.90
2023-03-25T07:27:13.378Z,99.90
2023-03-25T07:29:40.066Z,99.90
2023-03-25T07:32:06.839Z,99.90
2023-03-25T07:34:33.623Z,99.90
2023-03-25T07:37:00.113Z,99.90
2023-03-25T07:39:26.657Z,99.90
2023-03-25T07:41:53.505Z,99.90
2023-03-25T07:44:22.836Z,99.90
2023-03-25T07:46:49.460Z,99.90
2023-03-25T07:49:16.561Z,99.90
2023-03-25T07:51:43.519Z,99.90
2023-03-25T07:54:10.209Z,99.90
2023-03-25T07:56:36.722Z,99.90
2023-03-25T07:59:03.857Z,99.90
2023-03-25T08:01:30.896Z,99.90
2023-03-25T08:03:57.460Z,99.90
2023-03-25T08:06:23.989Z,99.90
2023-03-25T08:08:50.496Z,99.90
2023-03-25T08:11:17.087Z,99.90
2023-03-25T08:13:43.554Z,99.90
2023-03-25T08:16:13.600Z,99.90
2023-03-25T08:18:40.519Z,99.90
2023-03-25T08:21:07.769Z,99.90
2023-03-25T08:23:36.909Z,99.90
2023-03-25T08:26:05.418Z,99.90
2023-03-25T08:28:32.211Z,99.90
2023-03-25T08:30:58.908Z,99.90
2023-03-25T08:33:40.709Z,99.90
2023-03-25T08:36:10.542Z,99.90
2023-03-25T08:38:37.187Z,99.90
2023-03-25T08:41:03.752Z,99.90
2023-03-25T08:43:30.303Z,99.90
2023-03-25T08:45:56.799Z,99.90
2023-03-25T08:48:24.376Z,99.90
2023-03-25T08:50:50.844Z,99.90
2023-03-25T08:53:17.287Z,99.90
2023-03-25T08:55:43.965Z,99.90
2023-03-25T08:58:10.462Z,99.90
2023-03-25T09:00:37.740Z,99.90
2023-03-25T09:03:04.993Z,99.90
2023-03-25T09:05:31.576Z,99.90
2023-03-25T09:07:58.154Z,99.90
2023-03-25T09:10:24.682Z,99.90
2023-03-25T09:12:51.706Z,99.90
2023-03-25T09:15:18.550Z,99.90
2023-03-25T09:17:45.093Z,99.90
2023-03-25T09:20:12.375Z,99.90
2023-03-25T09:22:39.555Z,99.90
2023-03-25T09:25:09.217Z,99.90
2023-03-25T09:27:35.968Z,99.90
2023-03-25T09:30:03.310Z,99.90
2023-03-25T09:32:29.823Z,99.90
2023-03-25T09:34:56.391Z,99.40
2023-03-25T09:37:22.923Z,99.40
2023-03-25T09:39:49.635Z,98.30
2023-03-25T09:42:22.336Z,98.50
2023-03-25T09:45:12.398Z,98.90
2023-03-25T09:47:40.228Z,97.90
2023-03-25T09:50:10.515Z,96.20
2023-03-25T09:52:43.365Z,95.40
2023-03-25T09:55:14.801Z,96.20
2023-03-25T09:57:49.086Z,96.00
2023-03-25T10:00:20.416Z,96.50
2023-03-25T10:02:52.230Z,97.10
2023-03-25T10:05:18.847Z,96.90
2023-03-25T10:07:48.494Z,97.80
2023-03-25T10:10:23.961Z,98.00
2023-03-25T10:12:50.573Z,96.20
2023-03-25T10:15:19.772Z,94.50
2023-03-25T10:18:04.285Z,92.40
2023-03-25T10:20:40.732Z,91.80
2023-03-25T10:23:10.195Z,92.10
2023-03-25T10:25:38.190Z,91.70
2023-03-25T10:28:05.574Z,92.20
2023-03-25T10:30:34.990Z,92.60
2023-03-25T10:33:20.547Z,92.50
2023-03-25T10:35:48.265Z,92.90
2023-03-25T10:38:20.673Z,93.00
2023-03-25T10:40:53.020Z,93.40
2023-03-25T10:43:34.178Z,94.40
2023-03-25T10:46:08.251Z,94.00
2023-03-25T10:48:35.172Z,93.20
2023-03-25T10:51:09.490Z,92.90
2023-03-25T10:53:36.718Z,92.80
2023-03-25T10:56:12.668Z,92.00
2023-03-25T10:58:39.962Z,91.80
2023-03-25T11:01:17.681Z,91.90
2023-03-25T11:03:46.083Z,92.00
2023-03-25T11:06:39.840Z,91.80
2023-03-25T11:09:19.161Z,91.40
2023-03-25T11:11:46.691Z,91.20
2023-03-25T11:14:13.642Z,91.30
2023-03-25T11:16:42.406Z,91.40
2023-03-25T11:19:14.294Z,91.70
2023-03-25T11:21:45.838Z,91.60
2023-03-25T11:24:14.177Z,91.40
2023-03-25T11:26:41.068Z,91.10
2023-03-25T11:29:11.693Z,90.80
2023-03-25T11:31:38.386Z,90.20
2023-03-25T11:34:04.933Z,89.50
2023-03-25T11:36:32.766Z,88.70
2023-03-25T11:39:04.642Z,89.70
2023-03-25T11:41:32.535Z,89.50
2023-03-25T11:43:59.351Z,90.10
2023-03-25T11:46:25.910Z,88.60
2023-03-25T11:48:52.470Z,89.50
2023-03-25T11:51:21.407Z,89.90
2023-03-25T11:53:56.098Z,89.70
2023-03-25T11:56:24.016Z,87.60
2023-03-25T11:58:51.738Z,86.50
2023-03-25T12:01:18.218Z,85.00
2023-03-25T12:03:44.813Z,86.10
2023-03-25T12:06:11.520Z,87.10
2023-03-25T12:08:43.585Z,86.70
2023-03-25T12:11:19.106Z,85.50
2023-03-25T12:13:45.595Z,84.40
2023-03-25T12:16:15.409Z,85.60
2023-03-25T12:18:48.264Z,85.20
2023-03-25T12:21:26.230Z,83.40
2023-03-25T12:24:12.622Z,82.40
2023-03-25T12:26:50.341Z,82.30
2023-03-25T12:29:24.801Z,83.40
2023-03-25T12:32:09.945Z,82.50
2023-03-25T12:34:43.023Z,82.40
2023-03-25T12:37:31.563Z,82.50
2023-03-25T12:40:11.098Z,81.60
2023-03-25T12:42:43.701Z,81.90
2023-03-25T12:45:21.783Z,81.50
2023-03-25T12:47:49.732Z,80.20
2023-03-25T12:50:16.362Z,80.60
2023-03-25T12:52:51.969Z,81.50
2023-03-25T12:55:21.506Z,80.90
2023-03-25T12:57:53.876Z,80.20
2023-03-25T13:00:38.955Z,78.40
2023-03-25T13:03:05.522Z,77.20
2023-03-25T13:05:38.153Z,78.40
2023-03-25T13:08:07.300Z,78.20
2023-03-25T13:10:35.127Z,78.00
2023-03-25T13:13:03.583Z,77.20
2023-03-25T13:15:43.937Z,77.10
2023-03-25T13:18:13.046Z,76.20
2023-03-25T13:20:42.936Z,76.60
2023-03-25T13:23:13.310Z,77.70
2023-03-25T13:25:48.596Z,77.40
2023-03-25T13:28:17.237Z,77.70
2023-03-25T13:30:45.099Z,77.30
2023-03-25T13:33:15.386Z,77.10
2023-03-25T13:36:05.791Z,77.60
2023-03-25T13:38:34.005Z,78.40
2023-03-25T13:41:19.006Z,74.50
2023-03-25T13:43:49.499Z,75.60
2023-03-25T13:46:21.693Z,75.90
2023-03-25T13:48:54.071Z,76.40
2023-03-25T13:51:21.228Z,77.00
2023-03-25T13:53:52.162Z,76.70
2023-03-25T13:56:27.546Z,76.20
2023-03-25T13:58:53.983Z,77.40
2023-03-25T14:01:21.364Z,78.40
2023-03-25T14:03:47.867Z,79.00
2023-03-25T14:06:17.089Z,80.80
2023-03-25T14:09:05.130Z,80.70
2023-03-25T14:11:37.570Z,80.50
2023-03-25T14:14:10.179Z,81.40
2023-03-25T14:16:45.500Z,81.20
2023-03-25T14:19:14.230Z,81.10
2023-03-25T14:21:41.757Z,82.10
2023-03-25T14:24:17.323Z,82.50
2023-03-25T14:26:46.733Z,81.50
2023-03-25T14:29:19.228Z,82.40
2023-03-25T14:32:02.352Z,82.10
2023-03-25T14:34:28.956Z,81.70
2023-03-25T14:36:59.480Z,80.20
2023-03-25T14:39:29.051Z,78.90
2023-03-25T14:42:02.943Z,78.30
2023-03-25T14:44:32.670Z,77.80
2023-03-25T14:47:02.010Z,78.70
2023-03-25T14:49:50.113Z,79.10
2023-03-25T14:52:18.705Z,78.00
2023-03-25T14:54:49.506Z,76.20
2023-03-25T14:57:22.090Z,76.10
2023-03-25T14:59:49.993Z,76.60
2023-03-25T15:02:22.772Z,75.50
2023-03-25T15:04:56.939Z,76.00
2023-03-25T15:07:42.919Z,76.60
2023-03-25T15:10:19.157Z,75.70
2023-03-25T15:12:48.621Z,75.80
2023-03-25T15:15:49.712Z,76.80
2023-03-25T15:18:31.327Z,76.90
2023-03-25T15:21:10.235Z,77.70
2023-03-25T15:23:50.770Z,78.20
2023-03-25T15:26:20.013Z,78.80
2023-03-25T15:28:56.052Z,79.00
2023-03-25T15:31:27.233Z,78.90
2023-03-25T15:34:12.500Z,79.60
2023-03-25T15:36:47.499Z,79.80
2023-03-25T15:39:17.001Z,80.60
2023-03-25T15:41:56.449Z,79.70
2023-03-25T15:44:22.907Z,80.70
2023-03-25T15:46:56.409Z,80.80
2023-03-25T15:49:33.953Z,81.50
2023-03-25T15:52:02.302Z,82.70
2023-03-25T15:54:50.262Z,83.10
2023-03-25T15:57:23.051Z,83.60
2023-03-25T16:00:14.502Z,84.40
2023-03-25T16:02:49.820Z,84.50
2023-03-25T16:05:16.879Z,85.50
2023-03-25T16:07:43.766Z,86.60
2023-03-25T16:10:19.065Z,87.10
2023-03-25T16:12:46.348Z,87.40
2023-03-25T16:15:14.212Z,87.60
2023-03-25T16:17:42.259Z,89.80
2023-03-25T16:20:13.332Z,91.50
2023-03-25T16:22:43.015Z,93.10
2023-03-25T16:25:20.953Z,94.60
2023-03-25T16:27:51.507Z,95.50
2023-03-25T16:30:22.860Z,95.90
2023-03-25T16:32:49.448Z,95.60
2023-03-25T16:35:25.830Z,95.50
2023-03-25T16:37:56.686Z,95.90
2023-03-25T16:40:27.717Z,96.40
2023-03-25T16:42:55.466Z,97.30
2023-03-25T16:45:22.733Z,96.50
2023-03-25T16:47:50.014Z,96.40
2023-03-25T16:50:19.748Z,96.20
2023-03-25T16:52:46.876Z,96.40
2023-03-25T16:55:28.121Z,96.00
2023-03-25T16:57:54.615Z,95.80
2023-03-25T17:00:22.910Z,96.00
2023-03-25T17:02:50.226Z,95.90
2023-03-25T17:05:21.643Z,96.10
2023-03-25T17:07:49.347Z,96.10
2023-03-25T17:10:21.634Z,96.30
2023-03-25T17:12:53.275Z,96.40
2023-03-25T17:15:20.891Z,96.20
2023-03-25T17:17:51.207Z,96.60
2023-03-25T17:20:24.302Z,96.70
2023-03-25T17:23:01.829Z,96.70
2023-03-25T17:25:28.388Z,96.60
2023-03-25T17:27:59.408Z,96.60
2023-03-25T17:30:28.778Z,96.50
2023-03-25T17:33:10.072Z,96.50
2023-03-25T17:35:37.806Z,95.90
2023-03-25T17:38:05.007Z,96.20
2023-03-25T17:40:31.546Z,96.30
2023-03-25T17:42:58.112Z,96.50
2023-03-25T17:45:25.475Z,96.20
2023-03-25T17:47:52.254Z,96.50
2023-03-25T17:50:20.954Z,96.40
2023-03-25T17:52:47.530Z,96.60
2023-03-25T17:55:14.723Z,96.80
2023-03-25T17:57:41.351Z,96.50
2023-03-25T18:00:11.358Z,96.50
2023-03-25T18:02:38.730Z,96.70
2023-03-25T18:05:07.099Z,96.20
2023-03-25T18:07:33.622Z,96.30
2023-03-25T18:10:00.770Z,96.40
2023-03-25T18:12:28.005Z,95.60
2023-03-25T18:14:54.554Z,95.60
2023-03-25T18:17:21.060Z,95.10
2023-03-25T18:19:47.559Z,95.00
2023-03-25T18:22:20.289Z,94.90
2023-03-25T18:24:47.034Z,94.80
2023-03-25T18:27:14.220Z,94.10
2023-03-25T18:29:40.765Z,94.00
2023-03-25T18:32:07.518Z,93.90
2023-03-25T18:34:34.464Z,93.30
2023-03-25T18:37:00.971Z,93.60
2023-03-25T18:39:27.588Z,92.80
2023-03-25T18:41:54.094Z,92.80
2023-03-25T18:44:21.116Z,92.70
2023-03-25T18:46:47.637Z,92.10
2023-03-25T18:49:15.941Z,92.00
2023-03-25T18:51:42.727Z,91.90
2023-03-25T18:54:09.284Z,92.00
2023-03-25T18:56:36.020Z,91.80
2023-03-25T18:59:03.224Z,91.70
2023-03-25T19:01:29.725Z,91.60
2023-03-25T19:04:02.273Z,91.40
2023-03-25T19:06:29.750Z,90.90
2023-03-25T19:08:57.215Z,91.10
2023-03-25T19:11:24.094Z,91.40
2023-03-25T19:13:51.129Z,91.00
2023-03-25T19:16:18.248Z,91.20
2023-03-25T19:18:44.785Z,91.30
2023-03-25T19:21:14.836Z,91.20
2023-03-25T19:23:42.796Z,91.30
2023-03-25T19:26:09.318Z,91.10
2023-03-25T19:28:35.895Z,91.00
2023-03-25T19:31:02.793Z,91.00
2023-03-25T19:33:30.991Z,92.00
2023-03-25T19:36:00.981Z,92.20
2023-03-25T19:38:28.616Z,91.80
2023-03-25T19:41:03.346Z,91.20
2023-03-25T19:43:30.835Z,90.90
2023-03-25T19:45:58.016Z,90.50
2023-03-25T19:48:25.328Z,90.90
2023-03-25T19:50:52.828Z,90.70
2023-03-25T19:53:19.834Z,90.40
2023-03-25T19:55:46.431Z,90.30
2023-03-25T19:58:12.961Z,90.10
2023-03-25T20:00:39.909Z,90.20
2023-03-25T20:03:06.520Z,89.80
2023-03-25T20:05:33.257Z,89.80
2023-03-25T20:07:59.845Z,90.00
2023-03-25T20:10:30.446Z,90.10
2023-03-25T20:12:57.619Z,90.20
2023-03-25T20:15:24.759Z,89.90
2023-03-25T20:17:52.063Z,90.00
2023-03-25T20:20:19.247Z,90.00
2023-03-25T20:22:48.280Z,90.00
2023-03-25T20:25:15.672Z,89.60
2023-03-25T20:27:42.993Z,90.00
2023-03-25T20:30:10.754Z,90.10
2023-03-25T20:32:41.264Z,90.10
2023-03-25T20:35:09.057Z,90.30
2023-03-25T20:37:36.929Z,90.20
2023-03-25T20:40:05.123Z,90.20
2023-03-25T20:42:31.630Z,90.20
2023-03-25T20:44:58.132Z,90.10
2023-03-25T20:47:24.614Z,90.20
2023-03-25T20:49:51.175Z,90.30
2023-03-25T20:52:17.640Z,90.50
2023-03-25T20:54:44.301Z,90.40
2023-03-25T20:57:10.876Z,90.40
2023-03-25T20:59:37.417Z,90.30
2023-03-25T21:02:04.034Z,90.10
2023-03-25T21:04:30.554Z,90.20
2023-03-25T21:06:57.185Z,90.20
2023-03-25T21:09:23.926Z,90.30
2023-03-25T21:11:50.700Z,90.50
2023-03-25T21:14:18.603Z,90.40
2023-03-25T21:16:45.203Z,90.40
2023-03-25T21:19:12.675Z,90.60
2023-03-25T21:21:39.170Z,90.50
2023-03-25T21:24:06.537Z,90.50
2023-03-25T21:26:33.571Z,90.60
2023-03-25T21:29:00.321Z,90.70
2023-03-25T21:31:27.446Z,90.60
2023-03-25T21:33:54.902Z,90.60
2023-03-25T21:36:24.060Z,90.70
2023-03-25T21:38:52.252Z,90.80
2023-03-25T21:41:18.712Z,90.50
2023-03-25T21:43:45.698Z,90.60
2023-03-25T21:46:12.999Z,90.50
2023-03-25T21:48:40.112Z,90.60
2023-03-25T21:51:09.989Z,90.60
2023-03-25T21:53:43.526Z,90.50
2023-03-25T21:56:10.886Z,90.50
2023-03-25T21:58:37.643Z,90.50
2023-03-25T22:01:05.420Z,90.70
2023-03-25T22:03:36.961Z,90.80
2023-03-25T22:06:07.608Z,90.80
2023-03-25T22:08:34.074Z,90.70
2023-03-25T22:11:01.561Z,90.70
2023-03-25T22:13:28.095Z,90.80
2023-03-25T22:15:54.820Z,90.60
2023-03-25T22:18:21.458Z,90.80
2023-03-25T22:20:48.238Z,91.40
2023-03-25T22:23:15.921Z,91.60
2023-03-25T22:25:43.426Z,91.10
2023-03-25T22:28:10.443Z,91.30
2023-03-25T22:30:37.620Z,91.40
2023-03-25T22:33:04.302Z,91.00
2023-03-25T22:35:31.121Z,91.30
2023-03-25T22:37:57.620Z,91.20
2023-03-25T22:40:24.337Z,91.40
2023-03-25T22:42:51.111Z,91.60
2023-03-25T22:45:17.799Z,91.60
2023-03-25T22:47:44.274Z,91.50
2023-03-25T22:50:11.209Z,91.60
2023-03-25T22:52:41.284Z,91.90
2023-03-25T22:55:08.296Z,91.80
2023-03-25T22:57:34.842Z,92.50
2023-03-25T23:00:01.453Z,92.30
2023-03-25T23:02:27.977Z,92.30
2023-03-25T23:04:55.150Z,91.90
2023-03-25T23:07:21.679Z,92.10
2023-03-25T23:09:48.152Z,92.50
2023-03-25T23:12:15.852Z,92.80
2023-03-25T23:14:43.702Z,92.50
2023-03-25T23:17:10.362Z,92.80
2023-03-25T23:19:36.834Z,92.50
2023-03-25T23:22:03.309Z,93.10
2023-03-25T23:24:29.755Z,92.80
2023-03-25T23:26:56.475Z,92.80
2023-03-25T23:29:23.198Z,92.50
2023-03-25T23:31:49.715Z,92.60
2023-03-25T23:34:16.710Z,93.30
2023-03-25T23:36:43.790Z,93.10
2023-03-25T23:39:11.394Z,92.90
2023-03-25T23:41:38.196Z,92.80
2023-03-25T23:44:04.828Z,92.90
2023-03-25T23:46:31.796Z,92.60
2023-03-25T23:49:04.721Z,92.00
2023-03-25T23:51:32.902Z,91.90
2023-03-25T23:53:59.355Z,92.20
2023-03-25T23:56:25.883Z,92.40
2023-03-25T23:58:52.728Z,92.20
